CheckWX is a tool to help pilots better visualize weather data.  It is not intended as a substitute for an official pre-flight weather briefing.

10:22:27 UTC

EGXU METAR
RAF Linton-On-Ouse Airport
Linton-On-Ouse, United Kingdom
Current

32 mins ago

EGXU 260950Z 25007KT 9999 BKN036 09/05 Q1032 BLU NOSIG
Observed
Mar-26 @ 09:50 UTC
Wind
  • 250° at 7 KTS
Visibility
10,000+ meters
Flight Rules
VFR
Cloud Levels
  • Broken at 3,600' AGL
Temperature
C / 48°F
Dewpoint
C / 41°F
Humidity
76%
Altimeter
30.47" Hg
Pressure
1031.91 hPa
Previous

2 hours ago

EGXU 260850Z 26008KT 9999 BKN040 08/05 Q1032 BLU NOSIG
Observed
Mar-26 @ 08:50 UTC
Wind
  • 260° at 8 KTS
Visibility
10,000+ meters
Flight Rules
VFR
Cloud Levels
  • Broken at 4,000' AGL
Temperature
C / 46°F
Dewpoint
C / 41°F
Humidity
82%
Altimeter
30.47" Hg
Pressure
1031.91 hPa
Previous

3 hours ago

EGXU 260750Z 27004KT 9999 BKN041 06/04 Q1033 BLU NOSIG
Observed
Mar-26 @ 07:50 UTC
Wind
  • 270° at 4 KTS
Visibility
10,000+ meters
Flight Rules
VFR
Cloud Levels
  • Broken at 4,100' AGL
Temperature
C / 43°F
Dewpoint
C / 39°F
Humidity
87%
Altimeter
30.5" Hg
Pressure
1032.91 hPa